Pagina principale
METAR-TAF:

METAR-TAF

Aeroporti :

Aeroporto di Gibilterra

Gibilterra, Gibilterra

latitudine: 36-09N, longitudine: 005-21W, altezza: 5 m

Osservazione

Il bollettino è stato emesso 1 ora e 0 minuti fa, alle 22:50 UTC
Vento 13 kt da est
Temperature 20°C
Umidità 78%
Pressione 1015 hPa
Visibilità 10 km o più

METAR: LXGB 292250Z AUTO 10013KT 9999 // NCD 20/16 Q1015

Ora: 01:50 (23:50 UTC)

Previsione

Il bollettino è stato emesso 10 ore e 10 minuti fa, alle 13:40 UTC
Previsione valida dal 29 alle 15 UTC al 29 alle 23 UTC
Vento 14 kt da est
Visibilità 10 km o più
Poco nuvoloso ad un'altezza di 2000 ft

TAF: LXGB 291340Z 2915/2923 09014KT 9999 FEW020

Osservazioni e previsioni meteorologiche di più di 4000 aeroporti (messaggi METAR e TAF).

Le stazioni disponibili sono rappresentate dai dischi gialli e rossi sulla carta.

Puntare il mouse per vedere il nome della stazione.

Clicca sopra per visualizzare le osservazioni e previsioni meteorologiche.

Per cambiare la mappa : fare clic sui pulsanti verdi con una croce nera per ingrandire, il pulsante verde con un trattino per diminuire, o sulla freccia verde per le mappe adiacenti.


METAR-TAF: